createdAt,value
2018-11-27T00:00:32.724Z,1002.27
2018-11-27T00:01:32.740Z,1002.25
2018-11-27T00:02:32.751Z,1002.26
2018-11-27T00:03:32.778Z,1002.28
2018-11-27T00:04:32.774Z,1002.26
2018-11-27T00:05:32.795Z,1002.30
2018-11-27T00:06:32.813Z,1002.28
2018-11-27T00:07:32.829Z,1002.31
2018-11-27T00:08:32.836Z,1002.30
2018-11-27T00:09:32.868Z,1002.33
2018-11-27T00:10:32.864Z,1002.32
2018-11-27T00:11:32.890Z,1002.35
2018-11-27T00:12:32.932Z,1002.34
2018-11-27T00:13:32.917Z,1002.35
2018-11-27T00:14:32.981Z,1002.34
2018-11-27T00:15:32.965Z,1002.32
2018-11-27T00:16:32.952Z,1002.35
2018-11-27T00:17:32.973Z,1002.34
2018-11-27T00:18:32.989Z,1002.35
2018-11-27T00:19:33.014Z,1002.34
2018-11-27T00:20:33.033Z,1002.35
2018-11-27T00:21:33.045Z,1002.38
2018-11-27T00:22:33.050Z,1002.37
2018-11-27T00:23:33.063Z,1002.36
2018-11-27T00:24:33.080Z,1002.40
2018-11-27T00:25:33.227Z,1002.40
2018-11-27T00:26:33.115Z,1002.40
2018-11-27T00:27:33.120Z,1002.40
2018-11-27T00:28:33.135Z,1002.41
2018-11-27T00:29:33.146Z,1002.43
2018-11-27T00:30:33.169Z,1002.41
2018-11-27T00:31:33.176Z,1002.45
2018-11-27T00:32:33.214Z,1002.45
2018-11-27T00:33:33.214Z,1002.45
2018-11-27T00:34:33.222Z,1002.47
2018-11-27T00:35:33.239Z,1002.46
2018-11-27T00:36:33.248Z,1002.48
2018-11-27T00:37:33.275Z,1002.50
2018-11-27T00:38:33.285Z,1002.50
2018-11-27T00:39:33.294Z,1002.52
2018-11-27T00:40:33.340Z,1002.53
2018-11-27T00:41:33.329Z,1002.52
2018-11-27T00:42:33.392Z,1002.53
2018-11-27T00:43:33.356Z,1002.55
2018-11-27T00:44:33.391Z,1002.55
2018-11-27T00:45:33.399Z,1002.56
2018-11-27T00:46:33.410Z,1002.60
2018-11-27T00:47:33.412Z,1002.59
2018-11-27T00:48:33.429Z,1002.58
2018-11-27T00:49:33.452Z,1002.60
2018-11-27T00:50:33.468Z,1002.64
2018-11-27T00:51:33.470Z,1002.60
2018-11-27T00:52:33.499Z,1002.67
2018-11-27T00:53:33.504Z,1002.68
2018-11-27T00:54:33.526Z,1002.65
2018-11-27T00:55:33.573Z,1002.67
2018-11-27T00:56:33.550Z,1002.68
2018-11-27T00:57:33.564Z,1002.68
2018-11-27T00:58:33.574Z,1002.68
2018-11-27T00:59:33.630Z,1002.68
2018-11-27T01:00:33.606Z,1002.66
2018-11-27T01:01:33.623Z,1002.71
2018-11-27T01:02:33.643Z,1002.73
2018-11-27T01:03:33.649Z,1002.71
2018-11-27T01:04:33.665Z,1002.73
2018-11-27T01:05:33.681Z,1002.74
2018-11-27T01:06:33.697Z,1002.75
2018-11-27T01:07:33.704Z,1002.72
2018-11-27T01:08:33.720Z,1002.73
2018-11-27T01:09:33.774Z,1002.75
2018-11-27T01:10:33.821Z,1002.76
2018-11-27T01:11:33.771Z,1002.77
2018-11-27T01:13:33.798Z,1002.79
2018-11-27T01:14:33.811Z,1002.76
2018-11-27T01:15:33.831Z,1002.79
2018-11-27T01:16:54.869Z,1002.83
2018-11-27T01:17:33.864Z,1002.81
2018-11-27T01:18:33.884Z,1002.84
2018-11-27T01:19:33.908Z,1002.82
2018-11-27T01:20:33.915Z,1002.86
2018-11-27T01:21:33.927Z,1002.84
2018-11-27T01:22:33.940Z,1002.84
2018-11-27T01:23:33.955Z,1002.87
2018-11-27T01:24:33.973Z,1002.91
2018-11-27T01:25:33.990Z,1002.91
2018-11-27T01:26:34.000Z,1002.91
2018-11-27T01:27:34.098Z,1002.96
2018-11-27T01:28:34.026Z,1002.95
2018-11-27T01:29:34.047Z,1002.94
2018-11-27T01:30:34.061Z,1002.96
2018-11-27T01:31:34.072Z,1002.99
2018-11-27T01:32:34.120Z,1002.97
2018-11-27T01:33:34.102Z,1003.00
2018-11-27T01:34:34.146Z,1002.98
2018-11-27T01:35:34.134Z,1002.99
2018-11-27T01:36:34.200Z,1003.00
2018-11-27T01:37:34.160Z,1002.96
2018-11-27T01:38:34.180Z,1003.03
2018-11-27T01:39:34.191Z,1003.01
2018-11-27T01:40:34.228Z,1003.04
2018-11-27T01:41:34.224Z,1003.05
2018-11-27T01:42:34.245Z,1003.08
2018-11-27T01:43:34.265Z,1003.06
2018-11-27T01:44:34.329Z,1003.09
2018-11-27T01:45:34.281Z,1003.12
2018-11-27T01:46:34.306Z,1003.09
2018-11-27T01:47:34.313Z,1003.16
2018-11-27T01:48:34.342Z,1003.18
2018-11-27T01:49:34.349Z,1003.17
2018-11-27T01:50:34.361Z,1003.17
2018-11-27T01:51:34.379Z,1003.20
2018-11-27T01:52:34.393Z,1003.19
2018-11-27T01:53:34.403Z,1003.23
2018-11-27T01:54:34.417Z,1003.23
2018-11-27T01:55:34.530Z,1003.22
2018-11-27T01:56:34.451Z,1003.26
2018-11-27T01:57:34.460Z,1003.22
2018-11-27T01:58:34.492Z,1003.20
2018-11-27T01:59:34.495Z,1003.21
2018-11-27T02:00:34.508Z,1003.19
2018-11-27T02:01:34.534Z,1003.19
2018-11-27T02:02:34.535Z,1003.18
2018-11-27T02:03:34.557Z,1003.18
2018-11-27T02:04:34.579Z,1003.17
2018-11-27T02:05:34.582Z,1003.16
2018-11-27T02:06:34.600Z,1003.14
2018-11-27T02:07:34.621Z,1003.15
2018-11-27T02:08:34.631Z,1003.16
2018-11-27T02:09:34.651Z,1003.14
2018-11-27T02:10:34.675Z,1003.14
2018-11-27T02:11:34.696Z,1003.16
2018-11-27T02:12:34.694Z,1003.15
2018-11-27T02:13:34.699Z,1003.17
2018-11-27T02:14:34.754Z,1003.18
2018-11-27T02:15:34.730Z,1003.17
2018-11-27T02:16:34.748Z,1003.19
2018-11-27T02:17:34.768Z,1003.20
2018-11-27T02:18:34.778Z,1003.17
2018-11-27T02:19:34.798Z,1003.19
2018-11-27T02:20:34.811Z,1003.16
2018-11-27T02:21:34.825Z,1003.14
2018-11-27T02:22:34.835Z,1003.14
2018-11-27T02:23:34.851Z,1003.15
2018-11-27T02:24:34.863Z,1003.16
2018-11-27T02:25:34.888Z,1003.18
2018-11-27T02:26:34.901Z,1003.18
2018-11-27T02:27:34.915Z,1003.17
2018-11-27T02:28:34.924Z,1003.21
2018-11-27T02:29:34.967Z,1003.20
2018-11-27T02:30:34.953Z,1003.20
2018-11-27T02:31:34.979Z,1003.20
2018-11-27T02:33:35.026Z,1003.20
2018-11-27T02:34:35.025Z,1003.20
2018-11-27T02:35:35.038Z,1003.23
2018-11-27T02:36:35.040Z,1003.27
2018-11-27T02:37:35.060Z,1003.28
2018-11-27T02:38:35.077Z,1003.24
2018-11-27T02:39:35.095Z,1003.26
2018-11-27T02:40:35.172Z,1003.26
2018-11-27T02:41:35.119Z,1003.30
2018-11-27T02:42:35.133Z,1003.32
2018-11-27T02:43:35.158Z,1003.27
2018-11-27T02:44:35.169Z,1003.30
2018-11-27T02:46:35.191Z,1003.32
2018-11-27T02:47:35.208Z,1003.31
2018-11-27T02:48:35.217Z,1003.30
2018-11-27T02:49:35.238Z,1003.35
2018-11-27T02:50:35.249Z,1003.30
2018-11-27T02:51:35.264Z,1003.31
2018-11-27T02:52:35.311Z,1003.34
2018-11-27T02:53:35.440Z,1003.33
2018-11-27T02:54:35.313Z,1003.33
2018-11-27T02:55:35.328Z,1003.33
2018-11-27T02:56:35.380Z,1003.37
2018-11-27T02:57:35.360Z,1003.31
2018-11-27T02:58:35.368Z,1003.36
2018-11-27T02:59:35.387Z,1003.33
2018-11-27T03:00:35.455Z,1003.32
2018-11-27T03:01:35.414Z,1003.28
2018-11-27T03:02:35.425Z,1003.29
2018-11-27T03:03:35.445Z,1003.30
2018-11-27T03:04:35.451Z,1003.26
2018-11-27T03:05:35.469Z,1003.24
2018-11-27T03:06:35.484Z,1003.23
2018-11-27T03:07:35.501Z,1003.26
2018-11-27T03:08:35.540Z,1003.27
2018-11-27T03:09:35.535Z,1003.22
2018-11-27T03:10:35.565Z,1003.21
2018-11-27T03:11:35.566Z,1003.30
2018-11-27T03:12:35.588Z,1003.29
2018-11-27T03:13:35.586Z,1003.30
2018-11-27T03:14:35.617Z,1003.33
2018-11-27T03:15:35.618Z,1003.30
2018-11-27T03:16:35.630Z,1003.36
2018-11-27T03:17:35.661Z,1003.39
2018-11-27T03:18:35.661Z,1003.38
2018-11-27T03:19:35.693Z,1003.39
2018-11-27T03:20:35.692Z,1003.40
2018-11-27T03:21:35.720Z,1003.39
2018-11-27T03:22:35.733Z,1003.41
2018-11-27T03:23:35.752Z,1003.47
2018-11-27T03:24:35.750Z,1003.45
2018-11-27T03:25:35.811Z,1003.46
2018-11-27T03:26:35.773Z,1003.50
2018-11-27T03:27:56.809Z,1003.51
2018-11-27T03:28:35.814Z,1003.49
2018-11-27T03:29:35.833Z,1003.50
2018-11-27T03:30:35.834Z,1003.50
2018-11-27T03:31:35.936Z,1003.52
2018-11-27T03:32:35.866Z,1003.50
2018-11-27T03:33:35.888Z,1003.52
2018-11-27T03:34:35.894Z,1003.54
2018-11-27T03:35:35.911Z,1003.52
2018-11-27T03:36:35.938Z,1003.57
2018-11-27T03:37:35.939Z,1003.62
2018-11-27T03:38:36.087Z,1003.63
2018-11-27T03:39:35.974Z,1003.67
2018-11-27T03:41:35.996Z,1003.59
2018-11-27T03:42:36.020Z,1003.65
2018-11-27T03:43:36.032Z,1003.63
2018-11-27T03:44:36.054Z,1003.64
2018-11-27T03:45:36.058Z,1003.66
2018-11-27T03:46:36.078Z,1003.64
2018-11-27T03:47:36.093Z,1003.67
2018-11-27T03:48:36.103Z,1003.64
2018-11-27T03:49:36.116Z,1003.66
2018-11-27T03:50:36.140Z,1003.66
2018-11-27T03:51:36.147Z,1003.65
2018-11-27T03:52:36.161Z,1003.68
2018-11-27T03:53:36.195Z,1003.72
2018-11-27T03:54:36.196Z,1003.70
2018-11-27T03:55:36.259Z,1003.66
2018-11-27T03:56:36.224Z,1003.70
2018-11-27T03:57:36.235Z,1003.69
2018-11-27T03:58:36.254Z,1003.69
2018-11-27T03:59:36.273Z,1003.68
2018-11-27T04:00:36.287Z,1003.72
2018-11-27T04:01:36.297Z,1003.67
2018-11-27T04:02:36.317Z,1003.67
2018-11-27T04:03:36.324Z,1003.69
2018-11-27T04:04:36.344Z,1003.69
2018-11-27T04:05:36.350Z,1003.69
2018-11-27T04:06:36.361Z,1003.65
2018-11-27T04:07:36.385Z,1003.70
2018-11-27T04:08:36.405Z,1003.69
2018-11-27T04:09:36.404Z,1003.65
2018-11-27T04:10:36.437Z,1003.69
2018-11-27T04:11:36.446Z,1003.71
2018-11-27T04:12:36.485Z,1003.68
2018-11-27T04:13:36.466Z,1003.70
2018-11-27T04:14:36.493Z,1003.74
2018-11-27T04:15:36.493Z,1003.77
2018-11-27T04:16:36.514Z,1003.76
2018-11-27T04:17:36.528Z,1003.77
2018-11-27T04:18:36.542Z,1003.79
2018-11-27T04:19:36.553Z,1003.79
2018-11-27T04:20:36.584Z,1003.80
2018-11-27T04:21:36.584Z,1003.81
2018-11-27T04:23:36.653Z,1003.84
2018-11-27T04:24:36.634Z,1003.86
2018-11-27T04:25:36.644Z,1003.83
2018-11-27T04:26:36.650Z,1003.87
2018-11-27T04:27:36.672Z,1003.88
2018-11-27T04:29:36.706Z,1003.88
2018-11-27T04:30:36.712Z,1003.87
2018-11-27T04:31:36.729Z,1003.87
2018-11-27T04:32:36.745Z,1003.90
2018-11-27T04:33:36.756Z,1003.89
2018-11-27T04:34:36.772Z,1003.86
2018-11-27T04:35:36.788Z,1003.86
2018-11-27T04:36:36.819Z,1003.86
2018-11-27T04:37:36.813Z,1003.84
2018-11-27T04:38:36.827Z,1003.82
2018-11-27T04:39:36.844Z,1003.81
2018-11-27T04:40:36.894Z,1003.82
2018-11-27T04:41:36.914Z,1003.80
2018-11-27T04:42:36.889Z,1003.82
2018-11-27T04:43:36.907Z,1003.83
2018-11-27T04:44:36.918Z,1003.83
2018-11-27T04:45:36.934Z,1003.87
2018-11-27T04:46:36.950Z,1003.85
2018-11-27T04:47:36.966Z,1003.87
2018-11-27T04:48:36.987Z,1003.85
2018-11-27T04:49:36.999Z,1003.84
2018-11-27T04:50:37.011Z,1003.83
2018-11-27T04:51:37.020Z,1003.85
2018-11-27T04:52:37.036Z,1003.86
2018-11-27T04:53:37.063Z,1003.94
2018-11-27T04:54:37.066Z,1003.96
2018-11-27T04:55:37.130Z,1003.95
2018-11-27T04:56:37.093Z,1003.98
2018-11-27T04:57:37.107Z,1003.97
2018-11-27T04:58:37.119Z,1003.97
2018-11-27T04:59:37.147Z,1003.99
2018-11-27T05:00:37.155Z,1004.00
2018-11-27T05:01:37.173Z,1004.04
2018-11-27T05:02:37.194Z,1004.01
2018-11-27T05:03:37.248Z,1004.04
2018-11-27T05:04:37.213Z,1004.00
2018-11-27T05:05:37.235Z,1004.06
2018-11-27T05:06:37.238Z,1004.04
2018-11-27T05:07:37.262Z,1004.06
2018-11-27T05:08:37.358Z,1004.04
2018-11-27T05:09:37.316Z,1004.06
2018-11-27T05:10:37.294Z,1004.13
2018-11-27T05:11:37.312Z,1004.14
2018-11-27T05:12:37.417Z,1004.13
2018-11-27T05:13:37.353Z,1004.14
2018-11-27T05:14:37.423Z,1004.16
2018-11-27T05:15:37.428Z,1004.17
2018-11-27T05:16:37.382Z,1004.20
2018-11-27T05:17:37.401Z,1004.21
2018-11-27T05:18:37.415Z,1004.21
2018-11-27T05:19:37.469Z,1004.26
2018-11-27T05:20:37.478Z,1004.30
2018-11-27T05:21:37.483Z,1004.27
2018-11-27T05:22:37.504Z,1004.28
2018-11-27T05:23:37.483Z,1004.30
2018-11-27T05:24:37.497Z,1004.32
2018-11-27T05:26:37.528Z,1004.35
2018-11-27T05:27:37.547Z,1004.36
2018-11-27T05:28:37.555Z,1004.36
2018-11-27T05:29:37.584Z,1004.39
2018-11-27T05:30:37.584Z,1004.38
2018-11-27T05:31:37.601Z,1004.37
2018-11-27T05:32:37.611Z,1004.39
2018-11-27T05:33:37.647Z,1004.42
2018-11-27T05:34:37.654Z,1004.45
2018-11-27T05:35:37.661Z,1004.50
2018-11-27T05:36:37.677Z,1004.51
2018-11-27T05:37:37.689Z,1004.53
2018-11-27T05:38:37.716Z,1004.55
2018-11-27T05:39:37.718Z,1004.58
2018-11-27T05:40:37.737Z,1004.59
2018-11-27T05:41:37.748Z,1004.55
2018-11-27T05:42:37.795Z,1004.54
2018-11-27T05:43:37.771Z,1004.59
2018-11-27T05:44:37.788Z,1004.59
2018-11-27T05:45:37.803Z,1004.63
2018-11-27T05:46:37.817Z,1004.66
2018-11-27T05:47:37.885Z,1004.64
2018-11-27T05:48:37.853Z,1004.62
2018-11-27T05:49:37.875Z,1004.64
2018-11-27T05:50:37.895Z,1004.65
2018-11-27T05:51:37.891Z,1004.64
2018-11-27T05:52:37.907Z,1004.62
2018-11-27T05:53:38.039Z,1004.62
2018-11-27T05:54:37.954Z,1004.61
2018-11-27T05:55:37.954Z,1004.65
2018-11-27T05:56:37.965Z,1004.63
2018-11-27T05:57:37.979Z,1004.63
2018-11-27T05:58:38.008Z,1004.65
2018-11-27T05:59:38.027Z,1004.65
2018-11-27T06:00:38.027Z,1004.67
2018-11-27T06:01:38.034Z,1004.66
2018-11-27T06:02:38.049Z,1004.71
2018-11-27T06:03:38.070Z,1004.71
2018-11-27T06:04:38.080Z,1004.71
2018-11-27T06:05:38.099Z,1004.68
2018-11-27T06:07:38.127Z,1004.71
2018-11-27T06:08:38.146Z,1004.72
2018-11-27T06:09:38.156Z,1004.70
2018-11-27T06:10:38.196Z,1004.78
2018-11-27T06:11:38.195Z,1004.75
2018-11-27T06:12:38.216Z,1004.77
2018-11-27T06:13:38.218Z,1004.78
2018-11-27T06:14:38.232Z,1004.82
2018-11-27T06:15:38.242Z,1004.77
2018-11-27T06:16:38.264Z,1004.81
2018-11-27T06:17:38.268Z,1004.84
2018-11-27T06:18:38.288Z,1004.84
2018-11-27T06:19:38.310Z,1004.86
2018-11-27T06:20:38.330Z,1004.88
2018-11-27T06:21:38.328Z,1004.88
2018-11-27T06:22:38.348Z,1004.88
2018-11-27T06:23:38.364Z,1004.84
2018-11-27T06:24:38.373Z,1004.86
2018-11-27T06:25:38.394Z,1004.88
2018-11-27T06:26:38.427Z,1004.84
2018-11-27T06:27:38.458Z,1004.89
2018-11-27T06:28:38.431Z,1004.90
2018-11-27T06:29:38.449Z,1004.91
2018-11-27T06:30:38.462Z,1004.93
2018-11-27T06:31:38.479Z,1004.89
2018-11-27T06:32:38.523Z,1004.90
2018-11-27T06:33:38.524Z,1004.94
2018-11-27T06:34:38.519Z,1004.92
2018-11-27T06:35:38.530Z,1004.96
2018-11-27T06:36:38.548Z,1005.01
2018-11-27T06:37:38.581Z,1005.02
2018-11-27T06:38:38.664Z,1005.00
2018-11-27T06:39:38.597Z,1004.99
2018-11-27T06:40:38.608Z,1005.04
2018-11-27T06:41:38.624Z,1005.08
2018-11-27T06:42:38.644Z,1005.07
2018-11-27T06:43:38.650Z,1005.07
2018-11-27T06:44:38.666Z,1005.15
2018-11-27T06:45:38.675Z,1005.14
2018-11-27T06:46:38.699Z,1005.18
2018-11-27T06:47:38.707Z,1005.22
2018-11-27T06:48:38.731Z,1005.23
2018-11-27T06:49:38.741Z,1005.22
2018-11-27T06:50:38.759Z,1005.25
2018-11-27T06:51:38.760Z,1005.29
2018-11-27T06:52:38.783Z,1005.28
2018-11-27T06:53:38.820Z,1005.25
2018-11-27T06:54:38.823Z,1005.27
2018-11-27T06:55:38.876Z,1005.32
2018-11-27T06:56:38.839Z,1005.33
2018-11-27T06:57:38.860Z,1005.31
2018-11-27T06:58:38.870Z,1005.37
2018-11-27T06:59:38.881Z,1005.39
2018-11-27T07:00:38.893Z,1005.42
2018-11-27T07:01:38.918Z,1005.45
2018-11-27T07:02:38.926Z,1005.43
2018-11-27T07:03:38.944Z,1005.46
2018-11-27T07:04:38.951Z,1005.47
2018-11-27T07:05:38.969Z,1005.46
2018-11-27T07:06:38.982Z,1005.54
2018-11-27T07:07:39.004Z,1005.51
2018-11-27T07:08:39.026Z,1005.55
2018-11-27T07:09:39.027Z,1005.60
2018-11-27T07:10:39.053Z,1005.64
2018-11-27T07:11:39.055Z,1005.62
2018-11-27T07:12:39.104Z,1005.68
2018-11-27T07:13:39.091Z,1005.74
2018-11-27T07:14:39.098Z,1005.71
2018-11-27T07:15:39.120Z,1005.71
2018-11-27T07:16:39.150Z,1005.74
2018-11-27T07:17:39.150Z,1005.77
2018-11-27T07:18:39.158Z,1005.74
2018-11-27T07:19:39.168Z,1005.75
2018-11-27T07:20:39.184Z,1005.76
2018-11-27T07:21:39.203Z,1005.75
2018-11-27T07:22:39.220Z,1005.79
2018-11-27T07:23:39.249Z,1005.81
2018-11-27T07:24:39.252Z,1005.85
2018-11-27T07:25:39.256Z,1005.85
2018-11-27T07:26:39.277Z,1005.87
2018-11-27T07:27:39.300Z,1005.89
2018-11-27T07:28:39.305Z,1005.91
2018-11-27T07:29:39.340Z,1005.93
2018-11-27T07:30:39.332Z,1005.96
2018-11-27T07:31:39.350Z,1005.97
2018-11-27T07:32:39.364Z,1005.96
2018-11-27T07:33:39.377Z,1006.00
2018-11-27T07:34:39.395Z,1006.01
2018-11-27T07:35:39.406Z,1006.01
2018-11-27T07:36:39.420Z,1006.06
2018-11-27T07:37:39.435Z,1006.05
2018-11-27T07:38:39.449Z,1006.05
2018-11-27T07:39:39.472Z,1006.05
2018-11-27T07:40:39.542Z,1006.11
2018-11-27T07:41:39.529Z,1006.10
2018-11-27T07:42:39.511Z,1006.03
2018-11-27T07:43:39.529Z,1006.06
2018-11-27T07:44:39.537Z,1006.08
2018-11-27T07:45:39.560Z,1006.07
2018-11-27T07:46:39.564Z,1006.06
2018-11-27T07:47:39.582Z,1006.07
2018-11-27T07:48:39.593Z,1006.09
2018-11-27T07:49:39.612Z,1006.06
2018-11-27T07:50:39.635Z,1006.07
2018-11-27T07:51:39.639Z,1006.02
2018-11-27T07:52:39.651Z,1006.04
2018-11-27T07:53:39.671Z,1006.09
2018-11-27T07:54:39.684Z,1006.05
2018-11-27T07:55:39.701Z,1006.05
2018-11-27T07:56:39.713Z,1006.03
2018-11-27T07:57:39.740Z,1006.01
2018-11-27T07:58:39.752Z,1006.08
2018-11-27T07:59:39.768Z,1006.09
2018-11-27T08:02:39.804Z,1006.18
2018-11-27T08:03:39.819Z,1006.22
2018-11-27T08:04:39.828Z,1006.20
2018-11-27T08:05:39.854Z,1006.24
2018-11-27T08:06:39.859Z,1006.22
2018-11-27T08:07:39.889Z,1006.27
2018-11-27T08:08:39.921Z,1006.29
2018-11-27T08:09:39.909Z,1006.25
2018-11-27T08:10:39.974Z,1006.26
2018-11-27T08:11:39.930Z,1006.27
2018-11-27T08:12:39.945Z,1006.28
2018-11-27T08:13:39.957Z,1006.29
2018-11-27T08:14:39.983Z,1006.26
2018-11-27T08:15:40.007Z,1006.32
2018-11-27T08:16:40.001Z,1006.34
2018-11-27T08:17:40.024Z,1006.33
2018-11-27T08:18:40.036Z,1006.35
2018-11-27T08:19:40.050Z,1006.34
2018-11-27T08:20:40.076Z,1006.38
2018-11-27T08:21:40.078Z,1006.39
2018-11-27T08:22:40.099Z,1006.41
2018-11-27T08:23:40.105Z,1006.43
2018-11-27T08:24:40.118Z,1006.42
2018-11-27T08:25:40.164Z,1006.44
2018-11-27T08:26:40.146Z,1006.44
2018-11-27T08:27:40.194Z,1006.38
2018-11-27T08:28:40.177Z,1006.42
2018-11-27T08:29:40.196Z,1006.44
2018-11-27T08:30:40.218Z,1006.41
2018-11-27T08:31:40.224Z,1006.46
2018-11-27T08:32:40.237Z,1006.50
2018-11-27T08:33:40.278Z,1006.52
2018-11-27T08:34:40.273Z,1006.52
2018-11-27T08:35:40.281Z,1006.54
2018-11-27T08:36:40.316Z,1006.53
2018-11-27T08:37:40.306Z,1006.54
2018-11-27T08:38:40.364Z,1006.55
2018-11-27T08:39:40.335Z,1006.55
2018-11-27T08:40:40.356Z,1006.55
2018-11-27T08:41:40.668Z,1006.56
2018-11-27T08:42:40.402Z,1006.59
2018-11-27T08:43:40.404Z,1006.59
2018-11-27T08:44:40.408Z,1006.58
2018-11-27T08:45:40.431Z,1006.60
2018-11-27T08:46:40.453Z,1006.60
2018-11-27T08:47:40.468Z,1006.54
2018-11-27T08:48:40.479Z,1006.58
2018-11-27T08:49:40.485Z,1006.60
2018-11-27T08:50:40.502Z,1006.58
2018-11-27T08:51:40.530Z,1006.60
2018-11-27T08:52:40.534Z,1006.60
2018-11-27T08:53:40.566Z,1006.62
2018-11-27T08:54:40.569Z,1006.64
2018-11-27T08:55:40.588Z,1006.60
2018-11-27T08:56:40.593Z,1006.63
2018-11-27T08:57:40.597Z,1006.65
2018-11-27T08:58:40.620Z,1006.68
2018-11-27T08:59:40.628Z,1006.70
2018-11-27T09:00:40.651Z,1006.70
2018-11-27T09:01:40.658Z,1006.68
2018-11-27T09:02:40.680Z,1006.71
2018-11-27T09:03:40.688Z,1006.74
2018-11-27T09:04:40.710Z,1006.75
2018-11-27T09:05:40.725Z,1006.76
2018-11-27T09:06:40.800Z,1006.78
2018-11-27T09:07:40.761Z,1006.83
2018-11-27T09:08:40.783Z,1006.83
2018-11-27T09:09:40.774Z,1006.85
2018-11-27T09:10:40.786Z,1006.84
2018-11-27T09:11:40.811Z,1006.87
2018-11-27T09:12:40.824Z,1006.89
2018-11-27T09:13:40.834Z,1006.87
2018-11-27T09:14:40.850Z,1006.87
2018-11-27T09:15:40.872Z,1006.90
2018-11-27T09:16:40.894Z,1006.95
2018-11-27T09:17:40.907Z,1006.93
2018-11-27T09:18:40.909Z,1006.92
2018-11-27T09:19:40.919Z,1006.94
2018-11-27T09:20:40.933Z,1006.97
2018-11-27T09:22:40.965Z,1007.02
2018-11-27T09:23:41.120Z,1007.04
2018-11-27T09:24:40.998Z,1007.02
2018-11-27T09:25:41.015Z,1007.03
2018-11-27T09:26:41.025Z,1007.02
2018-11-27T09:27:41.050Z,1007.06
2018-11-27T09:28:41.055Z,1007.07
2018-11-27T09:29:41.062Z,1007.07
2018-11-27T09:30:41.095Z,1007.07
2018-11-27T09:31:41.095Z,1007.08
2018-11-27T09:32:41.120Z,1007.12
2018-11-27T09:33:41.126Z,1007.12
2018-11-27T09:34:41.150Z,1007.14
2018-11-27T09:35:41.161Z,1007.13
2018-11-27T09:36:41.228Z,1007.14
2018-11-27T09:37:41.180Z,1007.16
2018-11-27T09:38:41.214Z,1007.18
2018-11-27T09:39:41.223Z,1007.13
2018-11-27T09:40:41.291Z,1007.17
2018-11-27T09:41:41.237Z,1007.12
2018-11-27T09:42:41.273Z,1007.16
2018-11-27T09:43:41.271Z,1007.16
2018-11-27T09:44:41.295Z,1007.19
2018-11-27T09:45:41.301Z,1007.17
2018-11-27T09:46:41.309Z,1007.19
2018-11-27T09:47:41.335Z,1007.17
2018-11-27T09:48:41.336Z,1007.21
2018-11-27T09:49:41.369Z,1007.19
2018-11-27T09:50:41.371Z,1007.18
2018-11-27T09:51:41.397Z,1007.18
2018-11-27T09:52:41.398Z,1007.17
2018-11-27T09:53:41.417Z,1007.15
2018-11-27T09:54:41.433Z,1007.15
2018-11-27T09:55:41.447Z,1007.15
2018-11-27T09:56:41.455Z,1007.19
2018-11-27T09:57:41.485Z,1007.14
2018-11-27T09:58:41.486Z,1007.18
2018-11-27T09:59:41.506Z,1007.20
2018-11-27T10:01:41.538Z,1007.21
2018-11-27T10:03:41.560Z,1007.17
2018-11-27T10:04:41.570Z,1007.22
2018-11-27T10:05:41.609Z,1007.21
2018-11-27T10:06:41.604Z,1007.27
2018-11-27T10:07:41.621Z,1007.22
2018-11-27T10:08:41.702Z,1007.27
2018-11-27T10:09:41.659Z,1007.28
2018-11-27T10:10:41.664Z,1007.28
2018-11-27T10:11:42.650Z,1007.32
2018-11-27T10:12:41.695Z,1007.32
2018-11-27T10:13:41.706Z,1007.34
2018-11-27T10:14:41.723Z,1007.35
2018-11-27T10:15:41.737Z,1007.37
2018-11-27T10:16:41.750Z,1007.36
2018-11-27T10:17:41.766Z,1007.38
2018-11-27T10:18:41.782Z,1007.34
2018-11-27T10:19:41.794Z,1007.37
2018-11-27T10:20:41.818Z,1007.35
2018-11-27T10:21:41.841Z,1007.36
2018-11-27T10:22:41.838Z,1007.36
2018-11-27T10:23:41.864Z,1007.34
2018-11-27T10:24:41.868Z,1007.36
2018-11-27T10:25:41.898Z,1007.39
2018-11-27T10:26:41.896Z,1007.35
2018-11-27T10:27:41.920Z,1007.38
2018-11-27T10:28:41.931Z,1007.33
2018-11-27T10:29:41.949Z,1007.36
2018-11-27T10:30:41.961Z,1007.35
2018-11-27T10:31:41.969Z,1007.37
2018-11-27T10:32:41.996Z,1007.36
2018-11-27T10:33:42.009Z,1007.37
2018-11-27T10:34:42.016Z,1007.38
2018-11-27T10:35:42.024Z,1007.37
2018-11-27T10:36:42.101Z,1007.35
2018-11-27T10:37:42.056Z,1007.33
2018-11-27T10:38:42.067Z,1007.31
2018-11-27T10:39:42.085Z,1007.35
2018-11-27T10:40:42.115Z,1007.32
2018-11-27T10:41:42.107Z,1007.29
2018-11-27T10:42:42.160Z,1007.29
2018-11-27T10:43:42.154Z,1007.30
2018-11-27T10:44:42.153Z,1007.27
2018-11-27T10:45:42.175Z,1007.27
2018-11-27T10:46:42.191Z,1007.26
2018-11-27T10:47:42.208Z,1007.23
2018-11-27T10:48:42.211Z,1007.26
2018-11-27T10:49:42.227Z,1007.24
2018-11-27T10:50:42.254Z,1007.26
2018-11-27T10:51:42.258Z,1007.27
2018-11-27T10:52:42.271Z,1007.27
2018-11-27T10:53:42.316Z,1007.27
2018-11-27T10:54:42.312Z,1007.29
2018-11-27T10:55:42.322Z,1007.24
2018-11-27T10:56:42.339Z,1007.28
2018-11-27T10:57:42.341Z,1007.29
2018-11-27T10:58:42.362Z,1007.31
2018-11-27T10:59:42.399Z,1007.30
2018-11-27T11:00:42.395Z,1007.28
2018-11-27T11:01:42.403Z,1007.30
2018-11-27T11:02:42.419Z,1007.30
2018-11-27T11:03:42.436Z,1007.25
2018-11-27T11:04:42.449Z,1007.24
2018-11-27T11:05:42.462Z,1007.26
2018-11-27T11:06:42.512Z,1007.25
2018-11-27T11:07:42.498Z,1007.26
2018-11-27T11:09:42.528Z,1007.28
2018-11-27T11:10:42.550Z,1007.27
2018-11-27T11:11:42.556Z,1007.27
2018-11-27T11:12:42.570Z,1007.26
2018-11-27T11:13:42.585Z,1007.28
2018-11-27T11:14:42.605Z,1007.33
2018-11-27T11:15:42.605Z,1007.29
2018-11-27T11:16:42.625Z,1007.29
2018-11-27T11:17:42.656Z,1007.32
2018-11-27T11:18:42.657Z,1007.33
2018-11-27T11:19:42.668Z,1007.36
2018-11-27T11:20:42.693Z,1007.33
2018-11-27T11:21:42.824Z,1007.35
2018-11-27T11:22:42.711Z,1007.38
2018-11-27T11:23:42.736Z,1007.35
2018-11-27T11:24:42.741Z,1007.37
2018-11-27T11:25:42.754Z,1007.37
2018-11-27T11:26:42.779Z,1007.37
2018-11-27T11:27:42.785Z,1007.34
2018-11-27T11:28:42.802Z,1007.35
2018-11-27T11:29:42.820Z,1007.32
2018-11-27T11:30:42.823Z,1007.31
2018-11-27T11:31:42.838Z,1007.38
2018-11-27T11:32:42.858Z,1007.32
2018-11-27T11:33:42.866Z,1007.36
2018-11-27T11:34:42.883Z,1007.35
2018-11-27T11:35:42.896Z,1007.37
2018-11-27T11:36:42.909Z,1007.35
2018-11-27T11:37:42.948Z,1007.33
2018-11-27T11:38:42.973Z,1007.37
2018-11-27T11:39:42.959Z,1007.39
2018-11-27T11:40:42.965Z,1007.42
2018-11-27T11:41:42.983Z,1007.43
2018-11-27T11:42:42.997Z,1007.45
2018-11-27T11:43:43.029Z,1007.42
2018-11-27T11:44:43.023Z,1007.48
2018-11-27T11:45:43.034Z,1007.47
2018-11-27T11:46:43.068Z,1007.48
2018-11-27T11:47:43.082Z,1007.49
2018-11-27T11:48:43.086Z,1007.51
2018-11-27T11:49:43.095Z,1007.56
2018-11-27T11:50:43.112Z,1007.54
2018-11-27T11:51:43.146Z,1007.55
2018-11-27T11:52:45.409Z,1007.51
2018-11-27T11:53:43.160Z,1007.50
2018-11-27T11:54:43.175Z,1007.51
2018-11-27T11:55:43.278Z,1007.51
2018-11-27T11:56:43.192Z,1007.55
2018-11-27T11:57:43.228Z,1007.55
2018-11-27T11:58:43.238Z,1007.58
2018-11-27T11:59:43.245Z,1007.57
2018-11-27T12:00:43.255Z,1007.63
2018-11-27T12:01:43.274Z,1007.60
2018-11-27T12:02:43.306Z,1007.59
2018-11-27T12:03:43.306Z,1007.59
2018-11-27T12:04:43.321Z,1007.58
2018-11-27T12:05:43.337Z,1007.59
2018-11-27T12:06:43.401Z,1007.60
2018-11-27T12:07:43.358Z,1007.58
2018-11-27T12:08:43.377Z,1007.61
2018-11-27T12:09:43.383Z,1007.62
2018-11-27T12:10:43.406Z,1007.65
2018-11-27T12:11:43.415Z,1007.66
2018-11-27T12:12:43.433Z,1007.66
2018-11-27T12:14:43.455Z,1007.70
2018-11-27T12:15:43.472Z,1007.69
2018-11-27T12:16:43.496Z,1007.70
2018-11-27T12:17:43.506Z,1007.76
2018-11-27T12:18:43.517Z,1007.77
2018-11-27T12:19:43.530Z,1007.77
2018-11-27T12:20:43.569Z,1007.78